sensor_id;sensor_type;location;lat;lon;timestamp;temperature;humidity
19496;DHT22;9888;48.606;9.630;2023-01-30T00:01:02;-6.70;99.90
19496;DHT22;9888;48.606;9.630;2023-01-30T00:03:31;-6.60;99.90
19496;DHT22;9888;48.606;9.630;2023-01-30T00:05:59;-6.70;99.90
19496;DHT22;9888;48.606;9.630;2023-01-30T00:08:27;-6.80;99.90
19496;DHT22;9888;48.606;9.630;2023-01-30T00:10:54;-6.80;99.90
19496;DHT22;9888;48.606;9.630;2023-01-30T00:13:21;-6.70;99.90
19496;DHT22;9888;48.606;9.630;2023-01-30T00:15:49;-6.20;99.90
19496;DHT22;9888;48.606;9.630;2023-01-30T00:18:17;-6.10;99.90
19496;DHT22;9888;48.606;9.630;2023-01-30T00:20:45;-6.10;99.90
19496;DHT22;9888;48.606;9.630;2023-01-30T00:23:13;-6.20;99.90
19496;DHT22;9888;48.606;9.630;2023-01-30T00:25:45;-6.10;99.90
19496;DHT22;9888;48.606;9.630;2023-01-30T00:28:13;-6.10;99.90
19496;DHT22;9888;48.606;9.630;2023-01-30T00:31:04;-6.20;99.90
19496;DHT22;9888;48.606;9.630;2023-01-30T00:33:34;-6.30;99.90
19496;DHT22;9888;48.606;9.630;2023-01-30T00:36:03;-6.30;99.90
19496;DHT22;9888;48.606;9.630;2023-01-30T00:38:32;-6.30;99.90
19496;DHT22;9888;48.606;9.630;2023-01-30T00:41:02;-6.40;99.90
19496;DHT22;9888;48.606;9.630;2023-01-30T00:43:29;-6.40;99.90
19496;DHT22;9888;48.606;9.630;2023-01-30T00:49:07;-6.50;99.90
19496;DHT22;9888;48.606;9.630;2023-01-30T00:51:35;-6.40;99.90
19496;DHT22;9888;48.606;9.630;2023-01-30T00:54:03;-6.20;99.90
19496;DHT22;9888;48.606;9.630;2023-01-30T00:56:30;-6.20;99.90
19496;DHT22;9888;48.606;9.630;2023-01-30T00:58:57;-6.20;99.90
19496;DHT22;9888;48.606;9.630;2023-01-30T01:01:24;-6.30;99.90
19496;DHT22;9888;48.606;9.630;2023-01-30T01:03:51;-6.30;99.90
19496;DHT22;9888;48.606;9.630;2023-01-30T01:06:18;-6.20;99.90
19496;DHT22;9888;48.606;9.630;2023-01-30T01:08:47;-6.10;99.90
19496;DHT22;9888;48.606;9.630;2023-01-30T01:11:17;-6.10;99.90
19496;DHT22;9888;48.606;9.630;2023-01-30T01:13:58;-5.90;99.90
19496;DHT22;9888;48.606;9.630;2023-01-30T01:16:32;-5.80;99.90
19496;DHT22;9888;48.606;9.630;2023-01-30T01:19:00;-5.80;99.90
19496;DHT22;9888;48.606;9.630;2023-01-30T01:24:49;-5.80;99.90
19496;DHT22;9888;48.606;9.630;2023-01-30T01:27:17;-5.90;99.90
19496;DHT22;9888;48.606;9.630;2023-01-30T01:29:46;-6.10;99.90
19496;DHT22;9888;48.606;9.630;2023-01-30T01:32:35;-6.10;99.90
19496;DHT22;9888;48.606;9.630;2023-01-30T01:35:05;-6.00;99.90
19496;DHT22;9888;48.606;9.630;2023-01-30T01:37:33;-5.90;99.90
19496;DHT22;9888;48.606;9.630;2023-01-30T01:40:02;-6.00;99.90
19496;DHT22;9888;48.606;9.630;2023-01-30T01:42:48;-5.80;99.90
19496;DHT22;9888;48.606;9.630;2023-01-30T01:48:38;-3.90;99.90
19496;DHT22;9888;48.606;9.630;2023-01-30T01:51:16;-3.30;99.90
19496;DHT22;9888;48.606;9.630;2023-01-30T01:54:15;-2.90;99.90
19496;DHT22;9888;48.606;9.630;2023-01-30T01:56:48;-2.70;99.90
19496;DHT22;9888;48.606;9.630;2023-01-30T01:59:37;-2.70;99.90
19496;DHT22;9888;48.606;9.630;2023-01-30T02:02:09;-2.60;99.90
19496;DHT22;9888;48.606;9.630;2023-01-30T02:04:44;-2.60;99.90
19496;DHT22;9888;48.606;9.630;2023-01-30T02:07:46;-2.50;99.90
19496;DHT22;9888;48.606;9.630;2023-01-30T02:10:19;-2.50;99.90
19496;DHT22;9888;48.606;9.630;2023-01-30T02:12:49;-2.50;99.90
19496;DHT22;9888;48.606;9.630;2023-01-30T02:15:23;-2.60;99.90
19496;DHT22;9888;48.606;9.630;2023-01-30T02:17:50;-2.70;99.90
19496;DHT22;9888;48.606;9.630;2023-01-30T02:23:12;-2.70;99.90
19496;DHT22;9888;48.606;9.630;2023-01-30T02:26:02;-2.60;99.90
19496;DHT22;9888;48.606;9.630;2023-01-30T02:41:00;-2.60;99.90
19496;DHT22;9888;48.606;9.630;2023-01-30T02:46:14;-2.70;99.90
19496;DHT22;9888;48.606;9.630;2023-01-30T02:48:46;-2.80;99.90
19496;DHT22;9888;48.606;9.630;2023-01-30T02:51:29;-2.90;99.90
19496;DHT22;9888;48.606;9.630;2023-01-30T02:54:00;-2.90;99.90
19496;DHT22;9888;48.606;9.630;2023-01-30T02:56:27;-2.90;99.90
19496;DHT22;9888;48.606;9.630;2023-01-30T02:59:00;-3.00;99.90
19496;DHT22;9888;48.606;9.630;2023-01-30T03:02:02;-3.10;99.90
19496;DHT22;9888;48.606;9.630;2023-01-30T03:12:44;-3.30;99.90
19496;DHT22;9888;48.606;9.630;2023-01-30T03:18:15;-3.20;99.90
19496;DHT22;9888;48.606;9.630;2023-01-30T03:20:43;-3.20;99.90
19496;DHT22;9888;48.606;9.630;2023-01-30T03:23:10;-3.10;99.90
19496;DHT22;9888;48.606;9.630;2023-01-30T03:29:02;-2.80;99.90
19496;DHT22;9888;48.606;9.630;2023-01-30T03:31:30;-2.80;99.90
19496;DHT22;9888;48.606;9.630;2023-01-30T03:33:57;-2.90;99.90
19496;DHT22;9888;48.606;9.630;2023-01-30T03:36:25;-3.10;99.90
19496;DHT22;9888;48.606;9.630;2023-01-30T03:38:52;-3.30;99.90
19496;DHT22;9888;48.606;9.630;2023-01-30T03:41:20;-3.40;99.90
19496;DHT22;9888;48.606;9.630;2023-01-30T03:43:47;-3.40;99.90
19496;DHT22;9888;48.606;9.630;2023-01-30T03:46:32;-3.20;99.90
19496;DHT22;9888;48.606;9.630;2023-01-30T03:49:00;-3.20;99.90
19496;DHT22;9888;48.606;9.630;2023-01-30T03:51:28;-3.40;99.90
19496;DHT22;9888;48.606;9.630;2023-01-30T03:53:56;-3.60;99.90
19496;DHT22;9888;48.606;9.630;2023-01-30T03:56:24;-3.80;99.90
19496;DHT22;9888;48.606;9.630;2023-01-30T04:02:17;-3.80;99.90
19496;DHT22;9888;48.606;9.630;2023-01-30T04:04:49;-3.80;99.90
19496;DHT22;9888;48.606;9.630;2023-01-30T04:10:30;-3.70;99.90
19496;DHT22;9888;48.606;9.630;2023-01-30T04:13:21;-3.80;99.90
19496;DHT22;9888;48.606;9.630;2023-01-30T04:16:20;-3.70;99.90
19496;DHT22;9888;48.606;9.630;2023-01-30T04:19:16;-3.70;99.90
19496;DHT22;9888;48.606;9.630;2023-01-30T04:21:43;-3.70;99.90
19496;DHT22;9888;48.606;9.630;2023-01-30T04:24:14;-3.80;99.90
19496;DHT22;9888;48.606;9.630;2023-01-30T04:26:47;-3.90;99.90
19496;DHT22;9888;48.606;9.630;2023-01-30T04:29:16;-3.70;99.90
19496;DHT22;9888;48.606;9.630;2023-01-30T04:31:44;-3.50;99.90
19496;DHT22;9888;48.606;9.630;2023-01-30T04:34:17;-3.30;99.90
19496;DHT22;9888;48.606;9.630;2023-01-30T04:36:46;-3.30;99.90
19496;DHT22;9888;48.606;9.630;2023-01-30T04:39:31;-3.10;99.90
19496;DHT22;9888;48.606;9.630;2023-01-30T04:42:02;-2.80;99.90
19496;DHT22;9888;48.606;9.630;2023-01-30T04:44:56;-2.60;99.90
19496;DHT22;9888;48.606;9.630;2023-01-30T04:47:27;-2.40;99.90
19496;DHT22;9888;48.606;9.630;2023-01-30T04:49:56;-2.30;99.90
19496;DHT22;9888;48.606;9.630;2023-01-30T04:52:30;-2.30;99.90
19496;DHT22;9888;48.606;9.630;2023-01-30T04:54:58;-2.10;99.90
19496;DHT22;9888;48.606;9.630;2023-01-30T04:57:29;-2.00;99.90
19496;DHT22;9888;48.606;9.630;2023-01-30T05:00:05;-1.90;99.90
19496;DHT22;9888;48.606;9.630;2023-01-30T05:02:33;-1.90;99.90
19496;DHT22;9888;48.606;9.630;2023-01-30T05:05:02;-1.90;99.90
19496;DHT22;9888;48.606;9.630;2023-01-30T05:07:39;-2.00;99.90
19496;DHT22;9888;48.606;9.630;2023-01-30T05:10:25;-2.00;99.90
19496;DHT22;9888;48.606;9.630;2023-01-30T05:13:01;-2.00;99.90
19496;DHT22;9888;48.606;9.630;2023-01-30T05:16:02;-2.00;99.90
19496;DHT22;9888;48.606;9.630;2023-01-30T05:18:32;-1.90;99.90
19496;DHT22;9888;48.606;9.630;2023-01-30T05:21:35;-1.80;99.90
19496;DHT22;9888;48.606;9.630;2023-01-30T05:24:22;-1.70;99.90
19496;DHT22;9888;48.606;9.630;2023-01-30T05:27:06;-1.70;99.90
19496;DHT22;9888;48.606;9.630;2023-01-30T05:29:33;-1.60;99.90
19496;DHT22;9888;48.606;9.630;2023-01-30T05:32:17;-1.50;99.90
19496;DHT22;9888;48.606;9.630;2023-01-30T05:34:47;-1.50;99.90
19496;DHT22;9888;48.606;9.630;2023-01-30T05:37:14;-1.60;99.90
19496;DHT22;9888;48.606;9.630;2023-01-30T05:40:16;-1.40;99.90
19496;DHT22;9888;48.606;9.630;2023-01-30T05:42:44;-1.30;99.90
19496;DHT22;9888;48.606;9.630;2023-01-30T05:45:11;-1.20;99.90
19496;DHT22;9888;48.606;9.630;2023-01-30T05:47:37;-1.20;99.90
19496;DHT22;9888;48.606;9.630;2023-01-30T05:50:04;-1.20;99.90
19496;DHT22;9888;48.606;9.630;2023-01-30T05:52:31;-1.20;99.90
19496;DHT22;9888;48.606;9.630;2023-01-30T05:54:58;-1.20;99.90
19496;DHT22;9888;48.606;9.630;2023-01-30T05:57:49;-1.20;99.90
19496;DHT22;9888;48.606;9.630;2023-01-30T06:00:16;-1.20;99.90
19496;DHT22;9888;48.606;9.630;2023-01-30T06:02:44;-1.20;99.90
19496;DHT22;9888;48.606;9.630;2023-01-30T06:05:11;-1.10;99.90
19496;DHT22;9888;48.606;9.630;2023-01-30T06:07:39;-1.10;99.90
19496;DHT22;9888;48.606;9.630;2023-01-30T06:10:06;-1.00;99.90
19496;DHT22;9888;48.606;9.630;2023-01-30T06:12:34;-1.00;99.90
19496;DHT22;9888;48.606;9.630;2023-01-30T06:15:07;-1.00;99.90
19496;DHT22;9888;48.606;9.630;2023-01-30T06:17:35;-1.00;99.90
19496;DHT22;9888;48.606;9.630;2023-01-30T06:20:02;-0.90;99.90
19496;DHT22;9888;48.606;9.630;2023-01-30T06:22:28;-0.90;99.90
19496;DHT22;9888;48.606;9.630;2023-01-30T06:24:55;-0.90;99.90
19496;DHT22;9888;48.606;9.630;2023-01-30T06:27:22;-0.90;99.90
19496;DHT22;9888;48.606;9.630;2023-01-30T06:29:53;-0.90;99.90
19496;DHT22;9888;48.606;9.630;2023-01-30T06:32:19;-0.90;99.90
19496;DHT22;9888;48.606;9.630;2023-01-30T06:38:08;-0.90;99.90
19496;DHT22;9888;48.606;9.630;2023-01-30T06:43:58;-0.80;99.90
19496;DHT22;9888;48.606;9.630;2023-01-30T06:46:26;-0.70;99.90
19496;DHT22;9888;48.606;9.630;2023-01-30T06:48:59;-0.60;99.90
19496;DHT22;9888;48.606;9.630;2023-01-30T06:51:26;-0.60;99.90
19496;DHT22;9888;48.606;9.630;2023-01-30T06:53:53;-0.50;99.90
19496;DHT22;9888;48.606;9.630;2023-01-30T06:56:36;-0.40;99.90
19496;DHT22;9888;48.606;9.630;2023-01-30T06:59:37;-0.40;99.90
19496;DHT22;9888;48.606;9.630;2023-01-30T07:02:05;-0.40;99.90
19496;DHT22;9888;48.606;9.630;2023-01-30T07:04:37;-0.30;99.90
19496;DHT22;9888;48.606;9.630;2023-01-30T07:07:03;-0.30;99.90
19496;DHT22;9888;48.606;9.630;2023-01-30T07:09:30;-0.30;99.90
19496;DHT22;9888;48.606;9.630;2023-01-30T07:11:57;-0.20;99.90
19496;DHT22;9888;48.606;9.630;2023-01-30T07:14:24;-0.20;99.90
19496;DHT22;9888;48.606;9.630;2023-01-30T07:16:51;-0.20;99.90
19496;DHT22;9888;48.606;9.630;2023-01-30T07:19:17;-0.20;99.90
19496;DHT22;9888;48.606;9.630;2023-01-30T07:21:44;-0.10;99.90
19496;DHT22;9888;48.606;9.630;2023-01-30T07:24:12;-0.10;99.90
19496;DHT22;9888;48.606;9.630;2023-01-30T07:27:02;0.10;99.90
19496;DHT22;9888;48.606;9.630;2023-01-30T07:29:33;0.10;99.90
19496;DHT22;9888;48.606;9.630;2023-01-30T07:32:00;0.20;99.90
19496;DHT22;9888;48.606;9.630;2023-01-30T07:34:27;0.30;99.90
19496;DHT22;9888;48.606;9.630;2023-01-30T07:36:53;0.40;99.90
19496;DHT22;9888;48.606;9.630;2023-01-30T07:39:21;0.50;99.90
19496;DHT22;9888;48.606;9.630;2023-01-30T07:41:47;0.60;99.90
19496;DHT22;9888;48.606;9.630;2023-01-30T07:44:15;0.70;99.90
19496;DHT22;9888;48.606;9.630;2023-01-30T07:46:42;0.80;99.90
19496;DHT22;9888;48.606;9.630;2023-01-30T07:49:10;0.80;99.90
19496;DHT22;9888;48.606;9.630;2023-01-30T07:51:36;0.80;99.90
19496;DHT22;9888;48.606;9.630;2023-01-30T07:54:03;0.90;99.90
19496;DHT22;9888;48.606;9.630;2023-01-30T07:56:31;0.90;99.90
19496;DHT22;9888;48.606;9.630;2023-01-30T07:59:00;0.90;99.90
19496;DHT22;9888;48.606;9.630;2023-01-30T08:01:28;0.90;99.90
19496;DHT22;9888;48.606;9.630;2023-01-30T08:03:55;1.00;99.90
19496;DHT22;9888;48.606;9.630;2023-01-30T08:06:22;0.90;99.90
19496;DHT22;9888;48.606;9.630;2023-01-30T08:08:56;0.90;99.90
19496;DHT22;9888;48.606;9.630;2023-01-30T08:11:23;1.00;99.90
19496;DHT22;9888;48.606;9.630;2023-01-30T08:13:51;1.10;99.90
19496;DHT22;9888;48.606;9.630;2023-01-30T08:16:18;1.10;99.90
19496;DHT22;9888;48.606;9.630;2023-01-30T08:18:45;1.20;99.90
19496;DHT22;9888;48.606;9.630;2023-01-30T08:24:28;1.30;99.90
19496;DHT22;9888;48.606;9.630;2023-01-30T08:26:56;1.30;99.90
19496;DHT22;9888;48.606;9.630;2023-01-30T08:29:23;1.20;99.90
19496;DHT22;9888;48.606;9.630;2023-01-30T08:31:55;1.30;99.90
19496;DHT22;9888;48.606;9.630;2023-01-30T08:34:25;1.20;99.90
19496;DHT22;9888;48.606;9.630;2023-01-30T08:36:56;1.20;99.90
19496;DHT22;9888;48.606;9.630;2023-01-30T08:39:23;1.20;99.90
19496;DHT22;9888;48.606;9.630;2023-01-30T08:41:50;1.20;99.90
19496;DHT22;9888;48.606;9.630;2023-01-30T08:44:16;1.20;99.90
19496;DHT22;9888;48.606;9.630;2023-01-30T08:46:43;1.20;99.90
19496;DHT22;9888;48.606;9.630;2023-01-30T08:49:10;1.20;99.90
19496;DHT22;9888;48.606;9.630;2023-01-30T08:51:37;1.20;99.90
19496;DHT22;9888;48.606;9.630;2023-01-30T08:54:05;1.20;99.90
19496;DHT22;9888;48.606;9.630;2023-01-30T08:56:35;1.30;99.90
19496;DHT22;9888;48.606;9.630;2023-01-30T08:59:02;1.30;99.90
19496;DHT22;9888;48.606;9.630;2023-01-30T09:01:29;1.40;99.90
19496;DHT22;9888;48.606;9.630;2023-01-30T09:03:57;1.40;99.90
19496;DHT22;9888;48.606;9.630;2023-01-30T09:06:24;1.50;99.90
19496;DHT22;9888;48.606;9.630;2023-01-30T09:08:51;1.60;99.90
19496;DHT22;9888;48.606;9.630;2023-01-30T09:11:19;1.80;99.90
19496;DHT22;9888;48.606;9.630;2023-01-30T09:13:48;1.70;99.90
19496;DHT22;9888;48.606;9.630;2023-01-30T09:16:16;1.80;99.90
19496;DHT22;9888;48.606;9.630;2023-01-30T09:18:44;1.70;99.90
19496;DHT22;9888;48.606;9.630;2023-01-30T09:21:13;1.80;99.90
19496;DHT22;9888;48.606;9.630;2023-01-30T09:23:44;1.70;99.90
19496;DHT22;9888;48.606;9.630;2023-01-30T09:26:14;1.90;99.90
19496;DHT22;9888;48.606;9.630;2023-01-30T09:28:41;2.00;99.90
19496;DHT22;9888;48.606;9.630;2023-01-30T09:31:08;2.10;99.90
19496;DHT22;9888;48.606;9.630;2023-01-30T09:33:35;2.10;99.90
19496;DHT22;9888;48.606;9.630;2023-01-30T09:36:18;2.10;99.90
19496;DHT22;9888;48.606;9.630;2023-01-30T09:38:49;2.30;99.90
19496;DHT22;9888;48.606;9.630;2023-01-30T09:44:13;2.30;99.90
19496;DHT22;9888;48.606;9.630;2023-01-30T09:47:00;2.40;99.90
19496;DHT22;9888;48.606;9.630;2023-01-30T09:55:52;2.50;99.90
19496;DHT22;9888;48.606;9.630;2023-01-30T09:58:20;2.50;99.90
19496;DHT22;9888;48.606;9.630;2023-01-30T10:01:00;2.60;99.90
19496;DHT22;9888;48.606;9.630;2023-01-30T10:03:40;2.60;99.90
19496;DHT22;9888;48.606;9.630;2023-01-30T10:06:16;2.60;99.90
19496;DHT22;9888;48.606;9.630;2023-01-30T10:09:03;2.60;99.90
19496;DHT22;9888;48.606;9.630;2023-01-30T10:17:43;2.60;99.90
19496;DHT22;9888;48.606;9.630;2023-01-30T10:23:18;2.60;99.90
19496;DHT22;9888;48.606;9.630;2023-01-30T10:26:25;2.60;99.90
19496;DHT22;9888;48.606;9.630;2023-01-30T10:29:16;2.60;99.90
19496;DHT22;9888;48.606;9.630;2023-01-30T10:31:50;2.60;99.90
19496;DHT22;9888;48.606;9.630;2023-01-30T10:34:27;2.50;99.90
19496;DHT22;9888;48.606;9.630;2023-01-30T10:37:07;2.50;99.90
19496;DHT22;9888;48.606;9.630;2023-01-30T10:40:06;2.60;99.90
19496;DHT22;9888;48.606;9.630;2023-01-30T10:42:56;2.60;99.90
19496;DHT22;9888;48.606;9.630;2023-01-30T10:45:44;2.60;99.90
19496;DHT22;9888;48.606;9.630;2023-01-30T10:48:30;2.60;99.90
19496;DHT22;9888;48.606;9.630;2023-01-30T10:54:16;2.50;99.90
19496;DHT22;9888;48.606;9.630;2023-01-30T10:57:01;2.50;99.90
19496;DHT22;9888;48.606;9.630;2023-01-30T10:59:45;2.40;99.90
19496;DHT22;9888;48.606;9.630;2023-01-30T11:04:59;2.40;99.90
19496;DHT22;9888;48.606;9.630;2023-01-30T11:07:31;2.40;99.90
19496;DHT22;9888;48.606;9.630;2023-01-30T11:09:58;2.40;99.90
19496;DHT22;9888;48.606;9.630;2023-01-30T11:12:25;2.40;99.90
19496;DHT22;9888;48.606;9.630;2023-01-30T11:14:54;2.50;99.90
19496;DHT22;9888;48.606;9.630;2023-01-30T11:17:32;2.60;99.90
19496;DHT22;9888;48.606;9.630;2023-01-30T11:20:12;2.60;99.90
19496;DHT22;9888;48.606;9.630;2023-01-30T11:23:21;2.60;99.90
19496;DHT22;9888;48.606;9.630;2023-01-30T11:25:54;2.60;99.90
19496;DHT22;9888;48.606;9.630;2023-01-30T11:28:25;2.60;99.90
19496;DHT22;9888;48.606;9.630;2023-01-30T11:31:00;2.50;99.90
19496;DHT22;9888;48.606;9.630;2023-01-30T11:33:35;2.40;99.90
19496;DHT22;9888;48.606;9.630;2023-01-30T11:36:24;2.30;99.90
19496;DHT22;9888;48.606;9.630;2023-01-30T11:41:42;2.20;99.90
19496;DHT22;9888;48.606;9.630;2023-01-30T11:44:11;2.30;99.90
19496;DHT22;9888;48.606;9.630;2023-01-30T11:46:39;2.40;99.90
19496;DHT22;9888;48.606;9.630;2023-01-30T11:49:17;2.40;99.90
19496;DHT22;9888;48.606;9.630;2023-01-30T11:51:46;2.30;99.90
19496;DHT22;9888;48.606;9.630;2023-01-30T11:54:17;2.40;99.90
19496;DHT22;9888;48.606;9.630;2023-01-30T11:56:56;2.40;99.90
19496;DHT22;9888;48.606;9.630;2023-01-30T11:59:34;2.40;99.90
19496;DHT22;9888;48.606;9.630;2023-01-30T12:04:59;2.50;99.90
19496;DHT22;9888;48.606;9.630;2023-01-30T12:07:30;2.40;99.90
19496;DHT22;9888;48.606;9.630;2023-01-30T12:09:58;2.30;99.90
19496;DHT22;9888;48.606;9.630;2023-01-30T12:12:46;2.20;99.90
19496;DHT22;9888;48.606;9.630;2023-01-30T12:15:26;2.10;99.90
19496;DHT22;9888;48.606;9.630;2023-01-30T12:21:05;1.90;99.90
19496;DHT22;9888;48.606;9.630;2023-01-30T12:23:41;1.80;99.90
19496;DHT22;9888;48.606;9.630;2023-01-30T12:26:20;1.80;99.90
19496;DHT22;9888;48.606;9.630;2023-01-30T12:31:32;1.70;99.90
19496;DHT22;9888;48.606;9.630;2023-01-30T12:34:02;1.80;99.90
19496;DHT22;9888;48.606;9.630;2023-01-30T12:42:25;2.00;99.90
19496;DHT22;9888;48.606;9.630;2023-01-30T12:45:17;2.00;99.90
19496;DHT22;9888;48.606;9.630;2023-01-30T12:56:04;1.90;99.90
19496;DHT22;9888;48.606;9.630;2023-01-30T13:04:05;1.80;99.90
19496;DHT22;9888;48.606;9.630;2023-01-30T13:15:19;1.60;99.90
19496;DHT22;9888;48.606;9.630;2023-01-30T13:21:06;1.50;99.90
19496;DHT22;9888;48.606;9.630;2023-01-30T13:26:16;1.50;99.90
19496;DHT22;9888;48.606;9.630;2023-01-30T13:28:50;1.50;99.90
19496;DHT22;9888;48.606;9.630;2023-01-30T13:31:23;1.40;99.90
19496;DHT22;9888;48.606;9.630;2023-01-30T13:42:04;1.20;99.90
19496;DHT22;9888;48.606;9.630;2023-01-30T13:44:32;1.20;99.90
19496;DHT22;9888;48.606;9.630;2023-01-30T13:47:35;1.20;99.90
19496;DHT22;9888;48.606;9.630;2023-01-30T13:50:35;1.20;99.90
19496;DHT22;9888;48.606;9.630;2023-01-30T13:53:17;1.10;99.90
19496;DHT22;9888;48.606;9.630;2023-01-30T13:59:02;1.00;99.90
19496;DHT22;9888;48.606;9.630;2023-01-30T14:18:06;1.00;99.90
19496;DHT22;9888;48.606;9.630;2023-01-30T14:20:34;1.00;99.90
19496;DHT22;9888;48.606;9.630;2023-01-30T14:23:37;1.00;99.90
19496;DHT22;9888;48.606;9.630;2023-01-30T14:26:05;1.00;99.90
19496;DHT22;9888;48.606;9.630;2023-01-30T14:31:03;1.10;99.90
19496;DHT22;9888;48.606;9.630;2023-01-30T14:33:33;1.10;99.90
19496;DHT22;9888;48.606;9.630;2023-01-30T14:38:37;1.10;99.90
19496;DHT22;9888;48.606;9.630;2023-01-30T14:56:53;1.00;99.90
19496;DHT22;9888;48.606;9.630;2023-01-30T15:07:34;0.80;99.90
19496;DHT22;9888;48.606;9.630;2023-01-30T15:10:18;0.80;99.90
19496;DHT22;9888;48.606;9.630;2023-01-30T15:19:54;0.80;99.90
19496;DHT22;9888;48.606;9.630;2023-01-30T15:22:38;0.80;99.90
19496;DHT22;9888;48.606;9.630;2023-01-30T15:30:43;0.80;99.90
19496;DHT22;9888;48.606;9.630;2023-01-30T15:33:18;0.80;99.90
19496;DHT22;9888;48.606;9.630;2023-01-30T15:35:46;0.80;99.90
19496;DHT22;9888;48.606;9.630;2023-01-30T15:38:31;0.80;99.90
19496;DHT22;9888;48.606;9.630;2023-01-30T15:41:05;0.80;99.90
19496;DHT22;9888;48.606;9.630;2023-01-30T15:52:18;0.90;99.90
19496;DHT22;9888;48.606;9.630;2023-01-30T15:54:58;0.90;99.90
19496;DHT22;9888;48.606;9.630;2023-01-30T15:57:30;0.90;99.90
19496;DHT22;9888;48.606;9.630;2023-01-30T15:59:59;0.90;99.90
19496;DHT22;9888;48.606;9.630;2023-01-30T16:02:35;0.90;99.90
19496;DHT22;9888;48.606;9.630;2023-01-30T16:05:15;0.90;99.90
19496;DHT22;9888;48.606;9.630;2023-01-30T16:07:42;0.90;99.90
19496;DHT22;9888;48.606;9.630;2023-01-30T16:10:15;0.90;99.90
19496;DHT22;9888;48.606;9.630;2023-01-30T16:12:51;0.90;99.90
19496;DHT22;9888;48.606;9.630;2023-01-30T16:15:40;0.90;99.90
19496;DHT22;9888;48.606;9.630;2023-01-30T16:21:27;0.90;99.90
19496;DHT22;9888;48.606;9.630;2023-01-30T16:24:03;0.90;99.90
19496;DHT22;9888;48.606;9.630;2023-01-30T16:26:32;0.90;99.90
19496;DHT22;9888;48.606;9.630;2023-01-30T16:29:06;0.90;99.90
19496;DHT22;9888;48.606;9.630;2023-01-30T16:31:36;1.00;99.90
19496;DHT22;9888;48.606;9.630;2023-01-30T16:34:16;1.00;99.90
19496;DHT22;9888;48.606;9.630;2023-01-30T16:36:48;1.00;99.90
19496;DHT22;9888;48.606;9.630;2023-01-30T16:39:36;1.00;99.90
19496;DHT22;9888;48.606;9.630;2023-01-30T16:42:25;1.00;99.90
19496;DHT22;9888;48.606;9.630;2023-01-30T16:47:40;1.10;99.90
19496;DHT22;9888;48.606;9.630;2023-01-30T16:50:21;1.10;99.90
19496;DHT22;9888;48.606;9.630;2023-01-30T16:52:52;1.20;99.90
19496;DHT22;9888;48.606;9.630;2023-01-30T16:55:22;1.20;99.90
19496;DHT22;9888;48.606;9.630;2023-01-30T16:57:56;1.20;99.90
19496;DHT22;9888;48.606;9.630;2023-01-30T17:00:34;1.20;99.90
19496;DHT22;9888;48.606;9.630;2023-01-30T17:03:05;1.20;99.90
19496;DHT22;9888;48.606;9.630;2023-01-30T17:05:42;1.30;99.90
19496;DHT22;9888;48.606;9.630;2023-01-30T17:14:23;1.40;99.90
19496;DHT22;9888;48.606;9.630;2023-01-30T17:17:01;1.40;99.90
19496;DHT22;9888;48.606;9.630;2023-01-30T17:19:28;1.40;99.90
19496;DHT22;9888;48.606;9.630;2023-01-30T17:21:57;1.40;99.90
19496;DHT22;9888;48.606;9.630;2023-01-30T17:24:25;1.40;99.90
19496;DHT22;9888;48.606;9.630;2023-01-30T17:26:55;1.40;99.90
19496;DHT22;9888;48.606;9.630;2023-01-30T17:29:29;1.40;99.90
19496;DHT22;9888;48.606;9.630;2023-01-30T17:31:57;1.40;99.90
19496;DHT22;9888;48.606;9.630;2023-01-30T17:34:24;1.40;99.90
19496;DHT22;9888;48.606;9.630;2023-01-30T17:36:53;1.50;99.90
19496;DHT22;9888;48.606;9.630;2023-01-30T17:39:22;1.50;99.90
19496;DHT22;9888;48.606;9.630;2023-01-30T17:41:54;1.60;99.90
19496;DHT22;9888;48.606;9.630;2023-01-30T17:44:28;1.50;99.90
19496;DHT22;9888;48.606;9.630;2023-01-30T17:46:57;1.50;99.90
19496;DHT22;9888;48.606;9.630;2023-01-30T17:49:24;1.40;99.90
19496;DHT22;9888;48.606;9.630;2023-01-30T17:51:51;1.40;99.90
19496;DHT22;9888;48.606;9.630;2023-01-30T17:54:20;1.40;99.90
19496;DHT22;9888;48.606;9.630;2023-01-30T17:56:53;1.50;99.90
19496;DHT22;9888;48.606;9.630;2023-01-30T17:59:21;1.50;99.90
19496;DHT22;9888;48.606;9.630;2023-01-30T18:01:49;1.60;99.90
19496;DHT22;9888;48.606;9.630;2023-01-30T18:04:17;1.60;99.90
19496;DHT22;9888;48.606;9.630;2023-01-30T18:06:49;1.60;99.90
19496;DHT22;9888;48.606;9.630;2023-01-30T18:09:20;1.60;99.90
19496;DHT22;9888;48.606;9.630;2023-01-30T18:11:49;1.60;99.90
19496;DHT22;9888;48.606;9.630;2023-01-30T18:14:17;1.60;99.90
19496;DHT22;9888;48.606;9.630;2023-01-30T18:16:45;1.60;99.90
19496;DHT22;9888;48.606;9.630;2023-01-30T18:19:15;1.60;99.90
19496;DHT22;9888;48.606;9.630;2023-01-30T18:21:43;1.60;99.90
19496;DHT22;9888;48.606;9.630;2023-01-30T18:24:12;1.50;99.90
19496;DHT22;9888;48.606;9.630;2023-01-30T18:26:39;1.50;99.90
19496;DHT22;9888;48.606;9.630;2023-01-30T18:29:07;1.50;99.90
19496;DHT22;9888;48.606;9.630;2023-01-30T18:31:36;1.50;99.90
19496;DHT22;9888;48.606;9.630;2023-01-30T18:34:03;1.40;99.90
19496;DHT22;9888;48.606;9.630;2023-01-30T18:36:33;1.40;99.90
19496;DHT22;9888;48.606;9.630;2023-01-30T18:39:00;1.40;99.90
19496;DHT22;9888;48.606;9.630;2023-01-30T18:41:28;1.40;99.90
19496;DHT22;9888;48.606;9.630;2023-01-30T18:43:57;1.40;99.90
19496;DHT22;9888;48.606;9.630;2023-01-30T18:46:25;1.40;99.90
19496;DHT22;9888;48.606;9.630;2023-01-30T18:48:54;1.40;99.90
19496;DHT22;9888;48.606;9.630;2023-01-30T18:51:27;1.40;99.90
19496;DHT22;9888;48.606;9.630;2023-01-30T18:53:54;1.40;99.90
19496;DHT22;9888;48.606;9.630;2023-01-30T18:56:29;1.40;99.90
19496;DHT22;9888;48.606;9.630;2023-01-30T18:58:58;1.40;99.90
19496;DHT22;9888;48.606;9.630;2023-01-30T19:01:29;1.40;99.90
19496;DHT22;9888;48.606;9.630;2023-01-30T19:03:58;1.30;99.90
19496;DHT22;9888;48.606;9.630;2023-01-30T19:06:26;1.30;99.90
19496;DHT22;9888;48.606;9.630;2023-01-30T19:08:56;1.30;99.90
19496;DHT22;9888;48.606;9.630;2023-01-30T19:11:23;1.40;99.90
19496;DHT22;9888;48.606;9.630;2023-01-30T19:14:08;1.30;99.90
19496;DHT22;9888;48.606;9.630;2023-01-30T19:16:37;1.40;99.90
19496;DHT22;9888;48.606;9.630;2023-01-30T19:19:07;1.40;99.90
19496;DHT22;9888;48.606;9.630;2023-01-30T19:21:34;1.40;99.90
19496;DHT22;9888;48.606;9.630;2023-01-30T19:24:03;1.40;99.90
19496;DHT22;9888;48.606;9.630;2023-01-30T19:26:32;1.40;99.90
19496;DHT22;9888;48.606;9.630;2023-01-30T19:29:02;1.40;99.90
19496;DHT22;9888;48.606;9.630;2023-01-30T19:31:29;1.50;99.90
19496;DHT22;9888;48.606;9.630;2023-01-30T19:33:58;1.50;99.90
19496;DHT22;9888;48.606;9.630;2023-01-30T19:36:33;1.50;99.90
19496;DHT22;9888;48.606;9.630;2023-01-30T19:39:00;1.50;99.90
19496;DHT22;9888;48.606;9.630;2023-01-30T19:41:34;1.50;99.90
19496;DHT22;9888;48.606;9.630;2023-01-30T19:44:04;1.50;99.90
19496;DHT22;9888;48.606;9.630;2023-01-30T19:46:31;1.50;99.90
19496;DHT22;9888;48.606;9.630;2023-01-30T19:49:00;1.40;99.90
19496;DHT22;9888;48.606;9.630;2023-01-30T19:51:31;1.40;99.90
19496;DHT22;9888;48.606;9.630;2023-01-30T19:54:03;1.40;99.90
19496;DHT22;9888;48.606;9.630;2023-01-30T19:56:31;1.40;99.90
19496;DHT22;9888;48.606;9.630;2023-01-30T20:02:05;1.40;99.90
19496;DHT22;9888;48.606;9.630;2023-01-30T20:04:32;1.40;99.90
19496;DHT22;9888;48.606;9.630;2023-01-30T20:06:59;1.40;99.90
19496;DHT22;9888;48.606;9.630;2023-01-30T20:09:26;1.40;99.90
19496;DHT22;9888;48.606;9.630;2023-01-30T20:11:54;1.40;99.90